createdAt,value
2019-03-06T00:02:17.698Z,4.30
2019-03-06T00:05:04.420Z,4.30
2019-03-06T00:07:49.046Z,4.30
2019-03-06T00:10:33.653Z,4.30
2019-03-06T00:13:18.721Z,4.30
2019-03-06T00:16:03.942Z,4.30
2019-03-06T00:18:48.511Z,4.30
2019-03-06T00:21:33.641Z,4.30
2019-03-06T00:24:18.097Z,4.20
2019-03-06T00:27:03.207Z,4.30
2019-03-06T00:29:48.038Z,4.40
2019-03-06T00:32:32.625Z,4.40
2019-03-06T00:35:25.326Z,4.40
2019-03-06T00:38:10.096Z,4.40
2019-03-06T00:40:56.812Z,4.40
2019-03-06T00:43:41.751Z,4.40
2019-03-06T00:46:26.746Z,4.40
2019-03-06T00:49:11.807Z,4.40
2019-03-06T00:51:56.668Z,4.40
2019-03-06T00:54:41.114Z,4.30
2019-03-06T00:57:25.712Z,4.40
2019-03-06T01:00:26.437Z,4.30
2019-03-06T01:03:11.165Z,4.30
2019-03-06T01:05:55.625Z,4.30
2019-03-06T01:08:40.421Z,4.40
2019-03-06T01:11:25.636Z,4.40
2019-03-06T01:14:10.619Z,4.50
2019-03-06T01:16:55.867Z,4.50
2019-03-06T01:19:40.533Z,4.60
2019-03-06T01:22:25.240Z,4.60
2019-03-06T01:25:20.068Z,4.70
2019-03-06T01:28:04.847Z,4.80
2019-03-06T01:30:49.645Z,4.90
2019-03-06T01:33:38.695Z,4.90
2019-03-06T01:36:25.627Z,4.90
2019-03-06T01:39:12.205Z,4.90
2019-03-06T01:42:01.356Z,4.90
2019-03-06T01:44:47.760Z,4.80
2019-03-06T01:47:32.426Z,4.80
2019-03-06T01:50:16.870Z,4.90
2019-03-06T01:53:01.951Z,4.90
2019-03-06T01:55:46.697Z,5.00
2019-03-06T01:58:31.590Z,5.10
2019-03-06T02:01:16.962Z,5.10
2019-03-06T02:04:02.028Z,5.10
2019-03-06T02:06:47.107Z,5.10
2019-03-06T02:09:32.172Z,5.20
2019-03-06T02:12:17.686Z,5.20
2019-03-06T02:15:04.150Z,5.20
2019-03-06T02:17:48.985Z,5.10
2019-03-06T02:20:34.245Z,5.10
2019-03-06T02:23:19.303Z,5.10
2019-03-06T02:26:04.170Z,5.10
2019-03-06T02:28:48.895Z,5.10
2019-03-06T02:31:33.805Z,5.10
2019-03-06T02:34:18.863Z,5.10
2019-03-06T02:37:04.068Z,5.20
2019-03-06T02:39:49.182Z,5.20
2019-03-06T02:42:33.676Z,5.20
2019-03-06T02:45:19.597Z,5.20
2019-03-06T02:48:04.281Z,5.30
2019-03-06T02:50:49.008Z,5.30
2019-03-06T02:53:33.990Z,5.30
2019-03-06T02:56:19.034Z,5.30
2019-03-06T02:59:17.404Z,5.40
2019-03-06T03:02:04.520Z,5.40
2019-03-06T03:04:53.911Z,5.40
2019-03-06T03:07:39.322Z,5.50
2019-03-06T03:10:24.207Z,5.50
2019-03-06T03:13:09.346Z,5.60
2019-03-06T03:15:53.832Z,5.60
2019-03-06T03:18:38.591Z,5.60
2019-03-06T03:21:26.802Z,5.60
2019-03-06T03:24:09.978Z,5.60
2019-03-06T03:26:55.186Z,5.60
2019-03-06T03:29:39.708Z,5.60
2019-03-06T03:32:24.378Z,5.60
2019-03-06T03:35:09.461Z,5.60
2019-03-06T03:37:54.285Z,5.60
2019-03-06T03:40:38.831Z,5.60
2019-03-06T03:43:23.664Z,5.70
2019-03-06T03:46:08.332Z,5.60
2019-03-06T03:48:52.961Z,5.60
2019-03-06T03:51:37.393Z,5.60
2019-03-06T03:54:21.782Z,5.60
2019-03-06T03:57:06.541Z,5.60
2019-03-06T03:59:51.070Z,5.50
2019-03-06T04:02:36.274Z,5.50
2019-03-06T04:05:21.257Z,5.50
2019-03-06T04:08:06.144Z,5.50
2019-03-06T04:10:50.953Z,5.50
2019-03-06T04:13:35.706Z,5.40
2019-03-06T04:16:20.501Z,5.40
2019-03-06T04:19:05.100Z,5.40
2019-03-06T04:21:49.676Z,5.40
2019-03-06T04:24:34.230Z,5.40
2019-03-06T04:27:18.755Z,5.50
2019-03-06T04:30:07.122Z,5.50
2019-03-06T04:32:52.080Z,5.40
2019-03-06T04:35:36.567Z,5.50
2019-03-06T04:38:21.394Z,5.60
2019-03-06T04:41:06.302Z,5.60
2019-03-06T04:43:50.750Z,5.60
2019-03-06T04:46:35.300Z,5.60
2019-03-06T04:49:19.841Z,5.70
2019-03-06T04:52:04.490Z,5.70
2019-03-06T04:54:49.164Z,5.70
2019-03-06T04:57:33.725Z,5.70
2019-03-06T05:00:23.257Z,5.60
2019-03-06T05:03:08.509Z,5.60
2019-03-06T05:05:53.645Z,5.60
2019-03-06T05:08:38.277Z,5.50
2019-03-06T05:11:22.815Z,5.50
2019-03-06T05:14:07.257Z,5.60
2019-03-06T05:16:56.525Z,5.60
2019-03-06T05:19:41.829Z,5.60
2019-03-06T05:22:26.196Z,5.60
2019-03-06T05:25:10.987Z,5.70
2019-03-06T05:27:55.509Z,5.70
2019-03-06T05:30:40.107Z,5.80
2019-03-06T05:33:25.048Z,5.80
2019-03-06T05:36:31.417Z,5.80
2019-03-06T05:39:16.481Z,5.90
2019-03-06T05:42:01.059Z,5.90
2019-03-06T05:44:45.595Z,5.90
2019-03-06T05:47:30.114Z,5.90
2019-03-06T05:50:15.186Z,5.90
2019-03-06T05:53:00.298Z,6.00
2019-03-06T05:55:45.054Z,6.00
2019-03-06T05:58:29.906Z,6.00
2019-03-06T06:01:14.466Z,6.00
2019-03-06T06:03:59.082Z,6.10
2019-03-06T06:06:44.093Z,6.10
2019-03-06T06:09:28.589Z,6.10
2019-03-06T06:12:13.159Z,6.10
2019-03-06T06:14:58.084Z,6.20
2019-03-06T06:17:43.259Z,6.20
2019-03-06T06:20:28.271Z,6.20
2019-03-06T06:23:31.985Z,6.30
2019-03-06T06:26:16.495Z,6.30
2019-03-06T06:29:00.981Z,6.40
2019-03-06T06:31:45.588Z,6.40
2019-03-06T06:34:30.648Z,6.50
2019-03-06T06:37:15.276Z,6.60
2019-03-06T06:39:59.602Z,6.60
2019-03-06T06:42:44.546Z,6.60
2019-03-06T06:45:28.921Z,6.60
2019-03-06T06:48:15.855Z,6.60
2019-03-06T06:51:24.849Z,6.60
2019-03-06T06:54:13.326Z,6.70
2019-03-06T06:57:05.014Z,6.70
2019-03-06T07:00:08.629Z,6.70
2019-03-06T07:03:26.180Z,6.80
2019-03-06T07:06:15.604Z,6.80
2019-03-06T07:09:07.598Z,6.90
2019-03-06T07:11:59.560Z,7.00
2019-03-06T07:14:54.633Z,7.00
2019-03-06T07:17:43.829Z,7.10
2019-03-06T07:20:43.971Z,7.20
2019-03-06T07:23:30.432Z,7.20
2019-03-06T07:26:33.490Z,7.30
2019-03-06T07:29:36.152Z,7.30
2019-03-06T07:32:22.739Z,7.40
2019-03-06T07:35:44.800Z,7.50
2019-03-06T07:38:29.726Z,7.60
2019-03-06T07:41:16.228Z,7.60
2019-03-06T07:44:05.492Z,7.70
2019-03-06T07:46:51.845Z,7.70
2019-03-06T07:49:45.709Z,7.70
2019-03-06T07:52:41.180Z,7.80
2019-03-06T07:55:27.753Z,7.90
2019-03-06T07:58:41.935Z,8.00
2019-03-06T08:01:29.562Z,8.10
2019-03-06T08:04:14.772Z,8.20
2019-03-06T08:07:04.190Z,8.30
2019-03-06T08:09:48.935Z,8.40
2019-03-06T08:12:38.334Z,8.50
2019-03-06T08:15:25.432Z,8.60
2019-03-06T08:18:21.066Z,8.60
2019-03-06T08:21:07.529Z,8.70
2019-03-06T08:24:10.246Z,8.80
2019-03-06T08:26:55.576Z,8.80
2019-03-06T08:29:40.263Z,8.80
2019-03-06T08:32:26.734Z,8.90
2019-03-06T08:35:11.397Z,9.00
2019-03-06T08:37:55.989Z,9.10
2019-03-06T08:40:41.208Z,9.20
2019-03-06T08:43:26.238Z,9.30
2019-03-06T08:46:16.006Z,9.50
2019-03-06T08:49:07.997Z,9.60
2019-03-06T08:52:06.112Z,9.70
2019-03-06T08:54:53.138Z,9.70
2019-03-06T08:57:48.354Z,9.70
2019-03-06T09:00:51.235Z,9.80
2019-03-06T09:03:43.320Z,9.90
2019-03-06T09:06:47.741Z,9.90
2019-03-06T09:09:39.946Z,9.90
2019-03-06T09:12:29.855Z,9.90
2019-03-06T09:15:31.767Z,10.00
2019-03-06T09:18:29.995Z,10.00
2019-03-06T09:21:19.348Z,10.10
2019-03-06T09:24:15.115Z,10.20
2019-03-06T09:27:04.248Z,10.20
2019-03-06T09:29:53.456Z,10.30
2019-03-06T09:32:58.123Z,10.40
2019-03-06T09:35:53.519Z,10.60
2019-03-06T09:38:40.332Z,10.50
2019-03-06T09:41:27.495Z,10.60
2019-03-06T09:44:14.240Z,10.70
2019-03-06T09:47:16.985Z,10.70
2019-03-06T09:50:06.669Z,10.70
2019-03-06T09:52:53.274Z,10.80
2019-03-06T09:55:56.161Z,10.80
2019-03-06T09:58:45.803Z,10.90
2019-03-06T10:01:34.859Z,10.80
2019-03-06T10:04:24.074Z,10.80
2019-03-06T10:07:19.754Z,10.80
2019-03-06T10:10:08.928Z,11.00
2019-03-06T10:12:58.408Z,11.00
2019-03-06T10:15:45.506Z,11.00
2019-03-06T10:18:38.234Z,11.10
2019-03-06T10:21:22.867Z,11.10
2019-03-06T10:24:08.025Z,11.30
2019-03-06T10:26:55.290Z,11.30
2019-03-06T10:29:40.148Z,11.40
2019-03-06T10:32:25.457Z,11.50
2019-03-06T10:35:13.052Z,11.50
2019-03-06T10:37:58.169Z,11.60
2019-03-06T10:40:43.275Z,11.60
2019-03-06T10:43:28.607Z,11.70
2019-03-06T10:46:13.519Z,11.80
2019-03-06T10:48:58.668Z,11.90
2019-03-06T10:51:43.895Z,12.00
2019-03-06T10:54:28.934Z,12.10
2019-03-06T10:57:13.939Z,12.30
2019-03-06T10:59:58.899Z,12.40
2019-03-06T11:02:44.083Z,12.50
2019-03-06T11:05:33.640Z,12.50
2019-03-06T11:08:19.662Z,12.50
2019-03-06T11:11:04.968Z,12.50
2019-03-06T11:13:50.009Z,12.60
2019-03-06T11:16:37.216Z,12.60
2019-03-06T11:19:21.675Z,12.70
2019-03-06T11:22:06.358Z,12.80
2019-03-06T11:24:51.368Z,12.70
2019-03-06T11:27:36.422Z,12.70
2019-03-06T11:30:27.701Z,12.80
2019-03-06T11:33:12.896Z,12.90
2019-03-06T11:35:58.464Z,13.00
2019-03-06T11:38:44.374Z,13.10
2019-03-06T11:41:29.539Z,13.20
2019-03-06T11:44:14.663Z,13.40
2019-03-06T11:46:59.570Z,13.50
2019-03-06T11:49:44.928Z,13.60
2019-03-06T11:52:29.744Z,13.70
2019-03-06T11:55:15.494Z,13.90
2019-03-06T11:58:00.702Z,14.00
2019-03-06T12:00:46.569Z,14.00
2019-03-06T12:03:31.249Z,14.00
2019-03-06T12:06:16.300Z,14.20
2019-03-06T12:09:02.164Z,14.50
2019-03-06T12:11:47.383Z,14.50
2019-03-06T12:14:32.079Z,14.60
2019-03-06T12:17:17.519Z,14.70
2019-03-06T12:20:08.170Z,14.70
2019-03-06T12:22:51.809Z,14.70
2019-03-06T12:25:38.572Z,14.70
2019-03-06T12:28:23.541Z,14.70
2019-03-06T12:31:08.562Z,14.50
2019-03-06T12:33:53.210Z,14.30
2019-03-06T12:36:38.362Z,14.30
2019-03-06T12:39:23.464Z,14.40
2019-03-06T12:42:14.261Z,14.40
2019-03-06T12:44:54.964Z,14.50
2019-03-06T12:47:40.398Z,14.60
2019-03-06T12:50:31.838Z,14.80
2019-03-06T12:53:17.013Z,14.90
2019-03-06T12:56:02.355Z,15.10
2019-03-06T12:58:47.308Z,15.10
2019-03-06T13:01:32.602Z,15.00
2019-03-06T13:04:17.615Z,15.00
2019-03-06T13:07:02.173Z,15.10
2019-03-06T13:09:47.243Z,15.10
2019-03-06T13:12:32.395Z,15.20
2019-03-06T13:15:22.674Z,15.30
2019-03-06T13:18:07.624Z,15.40
2019-03-06T13:20:52.774Z,15.40
2019-03-06T13:23:37.922Z,15.30
2019-03-06T13:26:22.926Z,15.20
2019-03-06T13:29:08.062Z,14.90
2019-03-06T13:31:53.089Z,14.70
2019-03-06T13:34:38.302Z,14.50
2019-03-06T13:37:23.133Z,14.30
2019-03-06T13:40:07.843Z,14.20
2019-03-06T13:42:52.880Z,14.10
2019-03-06T13:45:38.024Z,14.00
2019-03-06T13:48:23.058Z,14.00
2019-03-06T13:51:08.323Z,13.90
2019-03-06T13:53:53.319Z,13.80
2019-03-06T13:56:38.585Z,13.70
2019-03-06T13:59:23.309Z,13.60
2019-03-06T14:02:08.210Z,13.50
2019-03-06T14:04:53.242Z,13.50
2019-03-06T14:07:38.358Z,13.50
2019-03-06T14:10:24.323Z,13.40
2019-03-06T14:13:09.883Z,13.40
2019-03-06T14:15:54.884Z,13.40
2019-03-06T14:18:40.084Z,13.50
2019-03-06T14:21:24.938Z,13.50
2019-03-06T14:24:09.918Z,13.60
2019-03-06T14:26:58.237Z,13.50
2019-03-06T14:29:43.245Z,13.60
2019-03-06T14:32:28.366Z,13.50
2019-03-06T14:35:13.575Z,13.50
2019-03-06T14:37:58.795Z,13.50
2019-03-06T14:40:44.920Z,13.40
2019-03-06T14:43:30.009Z,13.40
2019-03-06T14:46:16.766Z,13.40
2019-03-06T14:49:01.798Z,13.40
2019-03-06T14:51:46.810Z,13.30
2019-03-06T14:54:31.995Z,13.30
2019-03-06T14:57:17.069Z,13.30
2019-03-06T15:00:03.473Z,13.30
2019-03-06T15:02:48.242Z,13.30
2019-03-06T15:05:33.469Z,13.30
2019-03-06T15:08:18.292Z,13.30
2019-03-06T15:11:03.566Z,13.30
2019-03-06T15:13:48.619Z,13.20
2019-03-06T15:16:33.633Z,13.20
2019-03-06T15:19:18.223Z,13.20
2019-03-06T15:22:03.341Z,13.20
2019-03-06T15:24:48.211Z,13.30
2019-03-06T15:27:33.592Z,13.30
2019-03-06T15:30:18.619Z,13.30
2019-03-06T15:33:03.775Z,13.30
2019-03-06T15:35:48.940Z,13.30
2019-03-06T15:38:34.055Z,13.30
2019-03-06T15:41:21.340Z,13.30
2019-03-06T15:44:06.325Z,13.30
2019-03-06T15:46:51.333Z,13.30
2019-03-06T15:49:36.456Z,13.30
2019-03-06T15:52:20.988Z,13.30
2019-03-06T15:55:09.702Z,13.30
2019-03-06T15:57:54.868Z,13.30
2019-03-06T16:00:46.184Z,13.30
2019-03-06T16:03:26.394Z,13.30
2019-03-06T16:06:20.132Z,13.30
2019-03-06T16:08:58.548Z,13.20
2019-03-06T16:11:43.585Z,13.20
2019-03-06T16:14:28.657Z,13.20
2019-03-06T16:17:13.727Z,13.20
2019-03-06T16:19:59.024Z,13.10
2019-03-06T16:22:44.179Z,13.10
2019-03-06T16:25:36.425Z,13.20
2019-03-06T16:28:15.205Z,13.20
2019-03-06T16:31:00.184Z,13.10
2019-03-06T16:33:45.129Z,13.00
2019-03-06T16:36:30.248Z,13.00
2019-03-06T16:39:15.250Z,12.90
2019-03-06T16:42:00.455Z,12.80
2019-03-06T16:44:45.682Z,12.70
2019-03-06T16:47:30.416Z,12.70
2019-03-06T16:50:17.485Z,12.60
2019-03-06T16:53:02.414Z,12.50
2019-03-06T16:55:47.426Z,12.50
2019-03-06T16:58:32.398Z,12.50
2019-03-06T17:01:17.644Z,12.50
2019-03-06T17:04:04.570Z,12.50
2019-03-06T17:06:49.772Z,12.50
2019-03-06T17:09:34.800Z,12.50
2019-03-06T17:12:19.925Z,12.50
2019-03-06T17:15:07.051Z,12.50
2019-03-06T17:17:52.233Z,12.60
2019-03-06T17:20:37.255Z,12.60
2019-03-06T17:23:22.159Z,12.60
2019-03-06T17:26:07.259Z,12.60
2019-03-06T17:28:52.148Z,12.60
2019-03-06T17:31:36.914Z,12.60
2019-03-06T17:34:22.184Z,12.70
2019-03-06T17:37:07.122Z,12.70
2019-03-06T17:39:52.012Z,12.70
2019-03-06T17:42:37.246Z,12.70
2019-03-06T17:45:22.328Z,12.70
2019-03-06T17:48:08.586Z,12.70
2019-03-06T17:50:53.566Z,12.80
2019-03-06T17:53:38.558Z,12.80
2019-03-06T17:56:23.848Z,12.80
2019-03-06T17:59:08.869Z,12.80
2019-03-06T18:01:54.169Z,12.80
2019-03-06T18:04:39.101Z,12.80
2019-03-06T18:07:24.349Z,12.90
2019-03-06T18:10:16.630Z,12.90
2019-03-06T18:13:01.519Z,12.90
2019-03-06T18:15:46.352Z,12.90
2019-03-06T18:18:31.848Z,13.00
2019-03-06T18:21:16.794Z,13.00
2019-03-06T18:24:01.814Z,13.00
2019-03-06T18:26:46.734Z,12.90
2019-03-06T18:29:31.964Z,12.90
2019-03-06T18:32:17.013Z,12.90
2019-03-06T18:35:01.999Z,13.00
2019-03-06T18:37:47.201Z,13.00
2019-03-06T18:40:32.182Z,13.00
2019-03-06T18:43:17.401Z,13.00
2019-03-06T18:46:02.274Z,13.00
2019-03-06T18:48:47.535Z,12.90
2019-03-06T18:51:32.777Z,13.00
2019-03-06T18:54:17.836Z,13.00
2019-03-06T18:57:02.713Z,13.00
2019-03-06T18:59:47.842Z,13.00
2019-03-06T19:02:33.022Z,13.00
2019-03-06T19:05:19.456Z,13.00
2019-03-06T19:08:04.274Z,12.90
2019-03-06T19:10:49.639Z,13.00
2019-03-06T19:13:34.790Z,12.90
2019-03-06T19:16:19.945Z,12.90
2019-03-06T19:19:04.996Z,13.00
2019-03-06T19:21:50.098Z,13.10
2019-03-06T19:24:35.240Z,13.10
2019-03-06T19:27:20.267Z,13.00
2019-03-06T19:30:11.948Z,13.00
2019-03-06T19:32:56.718Z,13.00
2019-03-06T19:35:41.766Z,12.90
2019-03-06T19:38:27.301Z,12.90
2019-03-06T19:41:11.937Z,12.90
2019-03-06T19:43:56.965Z,12.90
2019-03-06T19:46:42.148Z,12.90
2019-03-06T19:49:27.782Z,12.80
2019-03-06T19:52:13.228Z,12.80
2019-03-06T19:54:58.262Z,12.80
2019-03-06T19:57:53.082Z,12.70
2019-03-06T20:00:38.742Z,12.70
2019-03-06T20:03:23.823Z,12.60
2019-03-06T20:06:08.833Z,12.50
2019-03-06T20:08:53.805Z,12.50
2019-03-06T20:11:38.825Z,12.50
2019-03-06T20:14:23.915Z,12.40
2019-03-06T20:17:08.987Z,12.40
2019-03-06T20:19:54.260Z,12.40
2019-03-06T20:22:39.591Z,12.40
2019-03-06T20:25:24.367Z,12.30
2019-03-06T20:28:09.574Z,12.30
2019-03-06T20:30:54.692Z,12.30
2019-03-06T20:33:40.308Z,12.20
2019-03-06T20:36:25.133Z,12.20
2019-03-06T20:39:10.757Z,12.10
2019-03-06T20:41:55.869Z,12.10
2019-03-06T20:44:41.350Z,12.10
2019-03-06T20:47:26.695Z,12.10
2019-03-06T20:50:13.686Z,12.10
2019-03-06T20:52:58.985Z,12.10
2019-03-06T20:55:43.941Z,12.20
2019-03-06T20:58:29.063Z,12.20
2019-03-06T21:01:14.183Z,12.20
2019-03-06T21:03:59.362Z,12.20
2019-03-06T21:06:44.417Z,12.20
2019-03-06T21:09:29.377Z,12.20
2019-03-06T21:12:14.679Z,12.20
2019-03-06T21:14:59.629Z,12.20
2019-03-06T21:17:44.897Z,12.20
2019-03-06T21:20:30.016Z,12.20
2019-03-06T21:23:14.950Z,12.20
2019-03-06T21:26:00.012Z,12.30
2019-03-06T21:28:44.939Z,12.20
2019-03-06T21:31:30.295Z,12.20
2019-03-06T21:34:15.285Z,12.10
2019-03-06T21:37:00.562Z,12.10
2019-03-06T21:39:45.373Z,12.10
2019-03-06T21:42:30.520Z,12.10
2019-03-06T21:45:15.784Z,12.00
2019-03-06T21:48:00.582Z,12.00
2019-03-06T21:50:45.445Z,12.00
2019-03-06T21:53:30.133Z,12.10
2019-03-06T21:56:15.062Z,12.10
2019-03-06T21:58:59.835Z,12.10
2019-03-06T22:01:44.583Z,12.10
2019-03-06T22:04:29.599Z,12.10
2019-03-06T22:07:14.729Z,12.10
2019-03-06T22:09:59.522Z,12.20
2019-03-06T22:12:44.153Z,12.20
2019-03-06T22:15:29.382Z,12.20
2019-03-06T22:18:14.051Z,12.20
2019-03-06T22:20:59.474Z,12.20
2019-03-06T22:23:44.342Z,12.30
2019-03-06T22:26:29.493Z,12.30
2019-03-06T22:29:14.538Z,12.30
2019-03-06T22:31:59.565Z,12.30
2019-03-06T22:34:44.000Z,12.40
2019-03-06T22:37:28.644Z,12.40
2019-03-06T22:40:17.806Z,12.40
2019-03-06T22:43:02.802Z,12.40
2019-03-06T22:45:47.487Z,12.40
2019-03-06T22:48:32.757Z,12.40
2019-03-06T22:51:17.814Z,12.40
2019-03-06T22:54:02.796Z,12.50
2019-03-06T22:56:47.733Z,12.50
2019-03-06T22:59:32.772Z,12.60
2019-03-06T23:02:20.279Z,12.60
2019-03-06T23:05:06.380Z,12.60
2019-03-06T23:07:51.654Z,12.50
2019-03-06T23:10:36.507Z,12.50
2019-03-06T23:13:21.074Z,12.40
2019-03-06T23:16:05.757Z,12.50
2019-03-06T23:18:50.820Z,12.40
2019-03-06T23:21:35.859Z,12.40
2019-03-06T23:24:20.738Z,12.40
2019-03-06T23:27:05.673Z,12.30
2019-03-06T23:29:50.257Z,12.30
2019-03-06T23:32:35.312Z,12.20
2019-03-06T23:35:20.537Z,12.20
2019-03-06T23:38:05.533Z,12.20
2019-03-06T23:40:50.223Z,12.20
2019-03-06T23:43:35.654Z,12.10
2019-03-06T23:46:20.348Z,12.10
2019-03-06T23:49:05.331Z,12.10
2019-03-06T23:51:52.019Z,12.10
2019-03-06T23:54:36.903Z,12.10
2019-03-06T23:57:22.036Z,12.10
